sensor_id;sensor_type;location;lat;lon;timestamp;pressure;altitude;pressure_sealevel;temperature
70819;BMP280;58439;51.046;13.692;2022-10-24T00:01:32;99765.50;;;13.13
70819;BMP280;58439;51.046;13.692;2022-10-24T00:04:00;99769.69;;;13.14
70819;BMP280;58439;51.046;13.692;2022-10-24T00:06:32;99767.75;;;13.10
70819;BMP280;58439;51.046;13.692;2022-10-24T00:09:00;99768.75;;;13.09
70819;BMP280;58439;51.046;13.692;2022-10-24T00:11:29;99769.19;;;13.06
70819;BMP280;58439;51.046;13.692;2022-10-24T00:13:56;99772.38;;;13.08
70819;BMP280;58439;51.046;13.692;2022-10-24T00:16:26;99777.22;;;13.11
70819;BMP280;58439;51.046;13.692;2022-10-24T00:18:54;99776.00;;;13.13
70819;BMP280;58439;51.046;13.692;2022-10-24T00:21:21;99780.78;;;13.16
70819;BMP280;58439;51.046;13.692;2022-10-24T00:23:50;99782.84;;;13.14
70819;BMP280;58439;51.046;13.692;2022-10-24T00:26:17;99796.22;;;13.13
70819;BMP280;58439;51.046;13.692;2022-10-24T00:28:49;99790.97;;;13.13
70819;BMP280;58439;51.046;13.692;2022-10-24T00:31:18;99797.00;;;13.13
70819;BMP280;58439;51.046;13.692;2022-10-24T00:33:47;99787.06;;;13.15
70819;BMP280;58439;51.046;13.692;2022-10-24T00:36:22;99788.66;;;13.16
70819;BMP280;58439;51.046;13.692;2022-10-24T00:38:51;99782.59;;;13.16
70819;BMP280;58439;51.046;13.692;2022-10-24T00:41:34;99779.19;;;13.15
70819;BMP280;58439;51.046;13.692;2022-10-24T00:44:17;99790.31;;;13.17
70819;BMP280;58439;51.046;13.692;2022-10-24T00:49:50;99782.78;;;13.21
70819;BMP280;58439;51.046;13.692;2022-10-24T00:52:32;99783.56;;;13.21
70819;BMP280;58439;51.046;13.692;2022-10-24T00:55:04;99787.22;;;13.20
70819;BMP280;58439;51.046;13.692;2022-10-24T00:57:51;99787.22;;;13.20
70819;BMP280;58439;51.046;13.692;2022-10-24T01:00:26;99792.47;;;13.20
70819;BMP280;58439;51.046;13.692;2022-10-24T01:02:55;99792.25;;;13.22
70819;BMP280;58439;51.046;13.692;2022-10-24T01:05:31;99784.78;;;13.25
70819;BMP280;58439;51.046;13.692;2022-10-24T01:08:35;99785.94;;;13.29
70819;BMP280;58439;51.046;13.692;2022-10-24T01:11:34;99772.38;;;13.33
70819;BMP280;58439;51.046;13.692;2022-10-24T01:17:06;99776.59;;;13.34
70819;BMP280;58439;51.046;13.692;2022-10-24T01:23:18;99775.16;;;13.38
70819;BMP280;58439;51.046;13.692;2022-10-24T01:32:25;99776.75;;;13.39
70819;BMP280;58439;51.046;13.692;2022-10-24T01:35:01;99776.16;;;13.37
70819;BMP280;58439;51.046;13.692;2022-10-24T01:37:51;99762.06;;;13.31
70819;BMP280;58439;51.046;13.692;2022-10-24T01:40:57;99751.44;;;13.26
70819;BMP280;58439;51.046;13.692;2022-10-24T01:46:18;99749.22;;;13.23
70819;BMP280;58439;51.046;13.692;2022-10-24T01:48:58;99741.34;;;13.23
70819;BMP280;58439;51.046;13.692;2022-10-24T01:51:31;99746.81;;;13.21
70819;BMP280;58439;51.046;13.692;2022-10-24T01:54:01;99742.59;;;13.20
70819;BMP280;58439;51.046;13.692;2022-10-24T01:56:31;99744.84;;;13.17
70819;BMP280;58439;51.046;13.692;2022-10-24T02:04:30;99735.19;;;13.11
70819;BMP280;58439;51.046;13.692;2022-10-24T02:07:07;99731.63;;;13.05
70819;BMP280;58439;51.046;13.692;2022-10-24T02:09:40;99744.97;;;13.03
70819;BMP280;58439;51.046;13.692;2022-10-24T02:12:20;99731.25;;;13.01
70819;BMP280;58439;51.046;13.692;2022-10-24T02:14:57;99728.63;;;13.01
70819;BMP280;58439;51.046;13.692;2022-10-24T02:17:27;99734.44;;;13.03
70819;BMP280;58439;51.046;13.692;2022-10-24T02:20:01;99737.09;;;13.03
70819;BMP280;58439;51.046;13.692;2022-10-24T02:23:21;99734.31;;;12.98
70819;BMP280;58439;51.046;13.692;2022-10-24T02:25:59;99728.38;;;12.85
70819;BMP280;58439;51.046;13.692;2022-10-24T02:28:39;99715.72;;;12.75
70819;BMP280;58439;51.046;13.692;2022-10-24T02:31:19;99718.41;;;12.68
70819;BMP280;58439;51.046;13.692;2022-10-24T02:33:56;99712.88;;;12.58
70819;BMP280;58439;51.046;13.692;2022-10-24T02:36:29;99706.25;;;12.49
70819;BMP280;58439;51.046;13.692;2022-10-24T02:39:01;99704.28;;;12.44
70819;BMP280;58439;51.046;13.692;2022-10-24T02:41:34;99697.78;;;12.47
70819;BMP280;58439;51.046;13.692;2022-10-24T02:44:04;99691.34;;;12.50
70819;BMP280;58439;51.046;13.692;2022-10-24T02:46:34;99687.88;;;12.49
70819;BMP280;58439;51.046;13.692;2022-10-24T02:49:11;99702.69;;;12.43
70819;BMP280;58439;51.046;13.692;2022-10-24T02:51:45;99699.50;;;12.35
70819;BMP280;58439;51.046;13.692;2022-10-24T02:54:15;99706.25;;;12.24
70819;BMP280;58439;51.046;13.692;2022-10-24T02:57:11;99698.78;;;12.21
70819;BMP280;58439;51.046;13.692;2022-10-24T02:59:44;99707.66;;;12.20
70819;BMP280;58439;51.046;13.692;2022-10-24T03:02:18;99704.81;;;12.22
70819;BMP280;58439;51.046;13.692;2022-10-24T03:04:47;99708.47;;;12.21
70819;BMP280;58439;51.046;13.692;2022-10-24T03:07:14;99706.47;;;12.23
70819;BMP280;58439;51.046;13.692;2022-10-24T03:09:42;99709.63;;;12.31
70819;BMP280;58439;51.046;13.692;2022-10-24T03:12:14;99718.06;;;12.33
70819;BMP280;58439;51.046;13.692;2022-10-24T03:14:43;99723.50;;;12.32
70819;BMP280;58439;51.046;13.692;2022-10-24T03:17:11;99735.25;;;12.29
70819;BMP280;58439;51.046;13.692;2022-10-24T03:19:38;99724.38;;;12.26
70819;BMP280;58439;51.046;13.692;2022-10-24T03:22:06;99730.47;;;12.20
70819;BMP280;58439;51.046;13.692;2022-10-24T03:24:36;99730.31;;;12.14
70819;BMP280;58439;51.046;13.692;2022-10-24T03:27:40;99721.81;;;12.12
70819;BMP280;58439;51.046;13.692;2022-10-24T03:30:08;99734.94;;;12.12
70819;BMP280;58439;51.046;13.692;2022-10-24T03:32:36;99721.41;;;12.15
70819;BMP280;58439;51.046;13.692;2022-10-24T03:35:07;99735.94;;;12.11
70819;BMP280;58439;51.046;13.692;2022-10-24T03:38:07;99729.13;;;12.04
70819;BMP280;58439;51.046;13.692;2022-10-24T03:41:07;99727.00;;;11.94
70819;BMP280;58439;51.046;13.692;2022-10-24T03:44:00;99735.41;;;11.96
70819;BMP280;58439;51.046;13.692;2022-10-24T03:46:28;99743.28;;;11.89
70819;BMP280;58439;51.046;13.692;2022-10-24T03:48:56;99740.50;;;11.91
70819;BMP280;58439;51.046;13.692;2022-10-24T03:51:24;99735.25;;;11.91
70819;BMP280;58439;51.046;13.692;2022-10-24T03:54:00;99728.44;;;11.83
70819;BMP280;58439;51.046;13.692;2022-10-24T03:56:28;99731.22;;;11.82
70819;BMP280;58439;51.046;13.692;2022-10-24T03:58:58;99740.91;;;11.81
70819;BMP280;58439;51.046;13.692;2022-10-24T04:01:44;99743.59;;;11.75
70819;BMP280;58439;51.046;13.692;2022-10-24T04:07:58;99737.59;;;11.54
70819;BMP280;58439;51.046;13.692;2022-10-24T04:10:26;99747.06;;;11.55
70819;BMP280;58439;51.046;13.692;2022-10-24T04:12:54;99751.91;;;11.58
70819;BMP280;58439;51.046;13.692;2022-10-24T04:15:21;99726.69;;;11.64
70819;BMP280;58439;51.046;13.692;2022-10-24T04:17:49;99733.72;;;11.70
70819;BMP280;58439;51.046;13.692;2022-10-24T04:20:16;99735.34;;;11.65
70819;BMP280;58439;51.046;13.692;2022-10-24T04:22:46;99737.78;;;11.59
70819;BMP280;58439;51.046;13.692;2022-10-24T04:25:16;99736.75;;;11.67
70819;BMP280;58439;51.046;13.692;2022-10-24T04:27:44;99742.00;;;11.67
70819;BMP280;58439;51.046;13.692;2022-10-24T04:30:21;99744.63;;;11.67
70819;BMP280;58439;51.046;13.692;2022-10-24T04:32:50;99756.31;;;11.71
70819;BMP280;58439;51.046;13.692;2022-10-24T04:35:18;99738.34;;;11.68
70819;BMP280;58439;51.046;13.692;2022-10-24T04:37:48;99743.38;;;11.70
70819;BMP280;58439;51.046;13.692;2022-10-24T04:40:19;99746.44;;;11.67
70819;BMP280;58439;51.046;13.692;2022-10-24T04:42:50;99729.34;;;11.57
70819;BMP280;58439;51.046;13.692;2022-10-24T04:45:20;99733.34;;;11.53
70819;BMP280;58439;51.046;13.692;2022-10-24T04:47:51;99730.88;;;11.78
70819;BMP280;58439;51.046;13.692;2022-10-24T04:50:40;99730.72;;;12.05
70819;BMP280;58439;51.046;13.692;2022-10-24T04:53:51;99741.63;;;12.08
70819;BMP280;58439;51.046;13.692;2022-10-24T04:56:24;99736.94;;;12.17
70819;BMP280;58439;51.046;13.692;2022-10-24T04:58:53;99740.19;;;12.12
70819;BMP280;58439;51.046;13.692;2022-10-24T05:01:23;99743.22;;;12.09
70819;BMP280;58439;51.046;13.692;2022-10-24T05:03:56;99736.41;;;12.02
70819;BMP280;58439;51.046;13.692;2022-10-24T05:06:24;99740.44;;;11.98
70819;BMP280;58439;51.046;13.692;2022-10-24T05:08:51;99728.59;;;11.95
70819;BMP280;58439;51.046;13.692;2022-10-24T05:11:18;99734.84;;;11.94
70819;BMP280;58439;51.046;13.692;2022-10-24T05:13:46;99724.75;;;11.91
70819;BMP280;58439;51.046;13.692;2022-10-24T05:16:13;99735.41;;;11.96
70819;BMP280;58439;51.046;13.692;2022-10-24T05:18:40;99723.56;;;12.25
70819;BMP280;58439;51.046;13.692;2022-10-24T05:21:07;99729.00;;;12.30
70819;BMP280;58439;51.046;13.692;2022-10-24T05:23:34;99722.94;;;12.61
70819;BMP280;58439;51.046;13.692;2022-10-24T05:26:02;99734.88;;;13.25
70819;BMP280;58439;51.046;13.692;2022-10-24T05:28:30;99735.13;;;13.72
70819;BMP280;58439;51.046;13.692;2022-10-24T05:31:00;99731.28;;;14.16
70819;BMP280;58439;51.046;13.692;2022-10-24T05:33:27;99735.34;;;14.54
70819;BMP280;58439;51.046;13.692;2022-10-24T05:35:54;99725.06;;;14.64
70819;BMP280;58439;51.046;13.692;2022-10-24T05:38:22;99721.84;;;14.51
70819;BMP280;58439;51.046;13.692;2022-10-24T05:40:49;99724.31;;;14.22
70819;BMP280;58439;51.046;13.692;2022-10-24T05:43:17;99717.41;;;13.79
70819;BMP280;58439;51.046;13.692;2022-10-24T05:45:48;99721.13;;;13.42
70819;BMP280;58439;51.046;13.692;2022-10-24T05:48:19;99731.56;;;13.12
70819;BMP280;58439;51.046;13.692;2022-10-24T05:51:00;99739.47;;;12.87
70819;BMP280;58439;51.046;13.692;2022-10-24T05:53:47;99748.06;;;12.69
70819;BMP280;58439;51.046;13.692;2022-10-24T05:56:14;99747.91;;;12.64
70819;BMP280;58439;51.046;13.692;2022-10-24T05:58:41;99747.78;;;12.59
70819;BMP280;58439;51.046;13.692;2022-10-24T06:01:09;99735.47;;;12.53
70819;BMP280;58439;51.046;13.692;2022-10-24T06:03:36;99739.34;;;12.50
70819;BMP280;58439;51.046;13.692;2022-10-24T06:06:06;99748.59;;;12.53
70819;BMP280;58439;51.046;13.692;2022-10-24T06:08:37;99747.72;;;12.65
70819;BMP280;58439;51.046;13.692;2022-10-24T06:11:17;99738.56;;;12.74
70819;BMP280;58439;51.046;13.692;2022-10-24T06:13:53;99742.59;;;12.77
70819;BMP280;58439;51.046;13.692;2022-10-24T06:16:21;99739.53;;;12.80
70819;BMP280;58439;51.046;13.692;2022-10-24T06:18:48;99746.75;;;12.85
70819;BMP280;58439;51.046;13.692;2022-10-24T06:21:15;99762.44;;;12.91
70819;BMP280;58439;51.046;13.692;2022-10-24T06:23:45;99755.31;;;12.98
70819;BMP280;58439;51.046;13.692;2022-10-24T06:26:22;99743.75;;;13.06
70819;BMP280;58439;51.046;13.692;2022-10-24T06:31:54;99760.97;;;13.20
70819;BMP280;58439;51.046;13.692;2022-10-24T06:35:00;99757.22;;;13.28
70819;BMP280;58439;51.046;13.692;2022-10-24T06:37:28;99755.00;;;13.31
70819;BMP280;58439;51.046;13.692;2022-10-24T06:39:56;99754.81;;;13.33
70819;BMP280;58439;51.046;13.692;2022-10-24T06:42:47;99764.84;;;13.36
70819;BMP280;58439;51.046;13.692;2022-10-24T06:45:16;99776.75;;;13.39
70819;BMP280;58439;51.046;13.692;2022-10-24T06:47:54;99769.22;;;13.42
70819;BMP280;58439;51.046;13.692;2022-10-24T06:50:47;99766.97;;;13.46
70819;BMP280;58439;51.046;13.692;2022-10-24T06:53:31;99768.72;;;13.52
70819;BMP280;58439;51.046;13.692;2022-10-24T06:56:04;99778.94;;;13.60
70819;BMP280;58439;51.046;13.692;2022-10-24T06:58:35;99785.50;;;13.69
70819;BMP280;58439;51.046;13.692;2022-10-24T07:01:20;99778.06;;;13.84
70819;BMP280;58439;51.046;13.692;2022-10-24T07:04:07;99788.38;;;13.98
70819;BMP280;58439;51.046;13.692;2022-10-24T07:12:39;99776.53;;;14.37
70819;BMP280;58439;51.046;13.692;2022-10-24T07:18:36;99785.28;;;14.61
70819;BMP280;58439;51.046;13.692;2022-10-24T07:54:15;99784.28;;;15.72
70819;BMP280;58439;51.046;13.692;2022-10-24T07:57:34;99775.66;;;16.05
70819;BMP280;58439;51.046;13.692;2022-10-24T08:01:05;99770.59;;;16.32
70819;BMP280;58439;51.046;13.692;2022-10-24T08:04:44;99766.63;;;16.35
70819;BMP280;58439;51.046;13.692;2022-10-24T08:07:27;99766.63;;;16.35
70819;BMP280;58439;51.046;13.692;2022-10-24T08:30:31;99774.53;;;16.85
70819;BMP280;58439;51.046;13.692;2022-10-24T08:33:02;99776.69;;;17.05
70819;BMP280;58439;51.046;13.692;2022-10-24T08:54:49;99767.59;;;17.39
70819;BMP280;58439;51.046;13.692;2022-10-24T08:58:50;99778.69;;;17.41
70819;BMP280;58439;51.046;13.692;2022-10-24T09:01:50;99773.47;;;17.46
70819;BMP280;58439;51.046;13.692;2022-10-24T09:04:24;99767.81;;;17.60
70819;BMP280;58439;51.046;13.692;2022-10-24T09:06:53;99772.03;;;17.83
70819;BMP280;58439;51.046;13.692;2022-10-24T09:09:35;99771.47;;;17.86
70819;BMP280;58439;51.046;13.692;2022-10-24T09:12:13;99770.94;;;17.79
70819;BMP280;58439;51.046;13.692;2022-10-24T09:14:44;99764.75;;;17.73
70819;BMP280;58439;51.046;13.692;2022-10-24T09:17:59;99762.91;;;17.73
70819;BMP280;58439;51.046;13.692;2022-10-24T09:21:34;99752.31;;;17.73
70819;BMP280;58439;51.046;13.692;2022-10-24T09:24:01;99752.13;;;17.80
70819;BMP280;58439;51.046;13.692;2022-10-24T09:26:32;99766.72;;;17.83
70819;BMP280;58439;51.046;13.692;2022-10-24T09:29:01;99768.03;;;17.85
70819;BMP280;58439;51.046;13.692;2022-10-24T09:31:29;99772.06;;;17.88
70819;BMP280;58439;51.046;13.692;2022-10-24T09:33:59;99764.38;;;17.86
70819;BMP280;58439;51.046;13.692;2022-10-24T09:36:29;99764.38;;;17.86
70819;BMP280;58439;51.046;13.692;2022-10-24T09:39:31;99757.31;;;17.97
70819;BMP280;58439;51.046;13.692;2022-10-24T09:42:16;99767.09;;;18.23
70819;BMP280;58439;51.046;13.692;2022-10-24T09:44:48;99760.06;;;18.44
70819;BMP280;58439;51.046;13.692;2022-10-24T09:47:25;99765.50;;;18.64
70819;BMP280;58439;51.046;13.692;2022-10-24T09:49:54;99771.41;;;18.77
70819;BMP280;58439;51.046;13.692;2022-10-24T09:52:28;99788.22;;;18.97
70819;BMP280;58439;51.046;13.692;2022-10-24T09:55:18;99787.06;;;19.41
70819;BMP280;58439;51.046;13.692;2022-10-24T09:57:53;99775.19;;;19.63
70819;BMP280;58439;51.046;13.692;2022-10-24T10:11:31;99754.50;;;19.81
70819;BMP280;58439;51.046;13.692;2022-10-24T10:14:24;99750.00;;;19.91
70819;BMP280;58439;51.046;13.692;2022-10-24T10:17:05;99755.56;;;19.65
70819;BMP280;58439;51.046;13.692;2022-10-24T10:19:37;99752.06;;;19.59
70819;BMP280;58439;51.046;13.692;2022-10-24T10:22:31;99749.88;;;19.36
70819;BMP280;58439;51.046;13.692;2022-10-24T10:24:59;99746.72;;;19.34
70819;BMP280;58439;51.046;13.692;2022-10-24T10:27:49;99744.03;;;19.23
70819;BMP280;58439;51.046;13.692;2022-10-24T10:30:20;99732.06;;;19.11
70819;BMP280;58439;51.046;13.692;2022-10-24T10:33:44;99739.22;;;19.05
70819;BMP280;58439;51.046;13.692;2022-10-24T10:36:29;99743.94;;;19.03
70819;BMP280;58439;51.046;13.692;2022-10-24T10:44:54;99731.81;;;19.22
70819;BMP280;58439;51.046;13.692;2022-10-24T10:50:47;99729.50;;;19.61
70819;BMP280;58439;51.046;13.692;2022-10-24T10:53:30;99729.81;;;19.80
70819;BMP280;58439;51.046;13.692;2022-10-24T11:06:21;99675.91;;;19.90
70819;BMP280;58439;51.046;13.692;2022-10-24T11:09:25;99665.28;;;19.85
70819;BMP280;58439;51.046;13.692;2022-10-24T11:12:18;99682.81;;;19.86
70819;BMP280;58439;51.046;13.692;2022-10-24T11:17:36;99676.72;;;20.01
70819;BMP280;58439;51.046;13.692;2022-10-24T11:20:40;99677.47;;;20.06
70819;BMP280;58439;51.046;13.692;2022-10-24T11:25:50;99692.91;;;19.99
70819;BMP280;58439;51.046;13.692;2022-10-24T11:28:27;99696.91;;;19.91
70819;BMP280;58439;51.046;13.692;2022-10-24T11:31:44;99691.03;;;19.94
70819;BMP280;58439;51.046;13.692;2022-10-24T11:34:44;99710.69;;;19.93
70819;BMP280;58439;51.046;13.692;2022-10-24T11:37:37;99697.16;;;19.80
70819;BMP280;58439;51.046;13.692;2022-10-24T11:40:17;99695.31;;;19.75
70819;BMP280;58439;51.046;13.692;2022-10-24T11:45:47;99692.91;;;19.69
70819;BMP280;58439;51.046;13.692;2022-10-24T11:48:27;99691.03;;;19.59
70819;BMP280;58439;51.046;13.692;2022-10-24T11:56:16;99708.03;;;19.58
70819;BMP280;58439;51.046;13.692;2022-10-24T11:58:56;99710.94;;;19.61
70819;BMP280;58439;51.046;13.692;2022-10-24T12:07:35;99693.97;;;19.88
70819;BMP280;58439;51.046;13.692;2022-10-24T12:19:28;99711.25;;;19.96
70819;BMP280;58439;51.046;13.692;2022-10-24T12:22:01;99722.91;;;19.94
70819;BMP280;58439;51.046;13.692;2022-10-24T12:24:36;99721.31;;;19.93
70819;BMP280;58439;51.046;13.692;2022-10-24T12:27:29;99724.50;;;19.96
70819;BMP280;58439;51.046;13.692;2022-10-24T12:30:13;99714.94;;;20.00
70819;BMP280;58439;51.046;13.692;2022-10-24T12:32:46;99712.00;;;20.01
70819;BMP280;58439;51.046;13.692;2022-10-24T12:35:44;99712.56;;;20.03
70819;BMP280;58439;51.046;13.692;2022-10-24T12:51:32;99699.50;;;20.27
70819;BMP280;58439;51.046;13.692;2022-10-24T12:54:37;99688.31;;;20.30
70819;BMP280;58439;51.046;13.692;2022-10-24T12:59:52;99685.69;;;20.25
70819;BMP280;58439;51.046;13.692;2022-10-24T13:03:12;99673.47;;;20.24
70819;BMP280;58439;51.046;13.692;2022-10-24T13:10:07;99668.94;;;20.14
70819;BMP280;58439;51.046;13.692;2022-10-24T13:15:37;99671.66;;;19.99
70819;BMP280;58439;51.046;13.692;2022-10-24T13:21:32;99672.44;;;19.94
70819;BMP280;58439;51.046;13.692;2022-10-24T13:37:40;99685.19;;;20.08
70819;BMP280;58439;51.046;13.692;2022-10-24T13:40:31;99693.41;;;20.11
70819;BMP280;58439;51.046;13.692;2022-10-24T13:43:05;99693.97;;;20.08
70819;BMP280;58439;51.046;13.692;2022-10-24T13:48:22;99707.50;;;19.97
70819;BMP280;58439;51.046;13.692;2022-10-24T13:51:39;99708.84;;;19.89
70819;BMP280;58439;51.046;13.692;2022-10-24T13:54:24;99708.84;;;19.84
70819;BMP280;58439;51.046;13.692;2022-10-24T13:57:30;99717.06;;;19.82
70819;BMP280;58439;51.046;13.692;2022-10-24T14:00:18;99710.41;;;19.75
70819;BMP280;58439;51.046;13.692;2022-10-24T14:02:46;99708.03;;;19.68
70819;BMP280;58439;51.046;13.692;2022-10-24T14:05:36;99717.59;;;19.64
70819;BMP280;58439;51.046;13.692;2022-10-24T14:08:06;99713.88;;;19.60
70819;BMP280;58439;51.046;13.692;2022-10-24T14:10:36;99715.97;;;19.53
70819;BMP280;58439;51.046;13.692;2022-10-24T14:13:03;99711.72;;;19.47
70819;BMP280;58439;51.046;13.692;2022-10-24T14:15:35;99717.03;;;19.42
70819;BMP280;58439;51.046;13.692;2022-10-24T14:18:12;99708.50;;;19.35
70819;BMP280;58439;51.046;13.692;2022-10-24T14:20:41;99711.69;;;19.31
70819;BMP280;58439;51.046;13.692;2022-10-24T14:23:36;99720.47;;;19.32
70819;BMP280;58439;51.046;13.692;2022-10-24T14:26:13;99713.81;;;19.35
70819;BMP280;58439;51.046;13.692;2022-10-24T14:28:51;99722.84;;;19.34
70819;BMP280;58439;51.046;13.692;2022-10-24T14:31:29;99706.94;;;19.34
70819;BMP280;58439;51.046;13.692;2022-10-24T14:33:57;99711.44;;;19.33
70819;BMP280;58439;51.046;13.692;2022-10-24T14:36:29;99709.31;;;19.35
70819;BMP280;58439;51.046;13.692;2022-10-24T14:38:58;99719.91;;;19.35
70819;BMP280;58439;51.046;13.692;2022-10-24T14:41:30;99722.59;;;19.40
70819;BMP280;58439;51.046;13.692;2022-10-24T14:43:59;99720.47;;;19.37
70819;BMP280;58439;51.046;13.692;2022-10-24T14:46:36;99717.56;;;19.34
70819;BMP280;58439;51.046;13.692;2022-10-24T14:51:59;99731.59;;;19.24
70819;BMP280;58439;51.046;13.692;2022-10-24T14:54:32;99727.59;;;19.16
70819;BMP280;58439;51.046;13.692;2022-10-24T14:57:04;99732.28;;;19.04
70819;BMP280;58439;51.046;13.692;2022-10-24T14:59:43;99735.50;;;19.06
70819;BMP280;58439;51.046;13.692;2022-10-24T15:02:30;99739.16;;;19.00
70819;BMP280;58439;51.046;13.692;2022-10-24T15:07:52;99731.97;;;18.85
70819;BMP280;58439;51.046;13.692;2022-10-24T15:10:42;99726.63;;;18.80
70819;BMP280;58439;51.046;13.692;2022-10-24T15:13:20;99733.75;;;18.80
70819;BMP280;58439;51.046;13.692;2022-10-24T15:15:53;99733.47;;;18.71
70819;BMP280;58439;51.046;13.692;2022-10-24T15:18:31;99746.16;;;18.64
70819;BMP280;58439;51.046;13.692;2022-10-24T15:21:16;99744.28;;;18.59
70819;BMP280;58439;51.046;13.692;2022-10-24T15:23:58;99734.72;;;18.53
70819;BMP280;58439;51.046;13.692;2022-10-24T15:26:37;99743.69;;;18.47
70819;BMP280;58439;51.046;13.692;2022-10-24T15:35:33;99755.72;;;18.28
70819;BMP280;58439;51.046;13.692;2022-10-24T15:38:26;99755.38;;;18.19
70819;BMP280;58439;51.046;13.692;2022-10-24T15:42:04;99764.63;;;18.17
70819;BMP280;58439;51.046;13.692;2022-10-24T15:46:18;99763.50;;;18.07
70819;BMP280;58439;51.046;13.692;2022-10-24T15:50:24;99769.75;;;17.96
70819;BMP280;58439;51.046;13.692;2022-10-24T15:58:13;99770.22;;;17.88
70819;BMP280;58439;51.046;13.692;2022-10-24T16:12:24;99763.72;;;17.74
70819;BMP280;58439;51.046;13.692;2022-10-24T16:14:52;99764.72;;;17.68
70819;BMP280;58439;51.046;13.692;2022-10-24T16:17:29;99759.38;;;17.63
70819;BMP280;58439;51.046;13.692;2022-10-24T16:20:06;99767.31;;;17.63
70819;BMP280;58439;51.046;13.692;2022-10-24T16:22:39;99769.09;;;17.57
70819;BMP280;58439;51.046;13.692;2022-10-24T16:25:24;99782.47;;;17.45
70819;BMP280;58439;51.046;13.692;2022-10-24T16:27:53;99772.94;;;17.44
70819;BMP280;58439;51.046;13.692;2022-10-24T16:30:25;99772.19;;;17.49
70819;BMP280;58439;51.046;13.692;2022-10-24T16:32:56;99770.53;;;17.43
70819;BMP280;58439;51.046;13.692;2022-10-24T16:35:49;99766.97;;;17.32
70819;BMP280;58439;51.046;13.692;2022-10-24T16:38:56;99765.28;;;17.26
70819;BMP280;58439;51.046;13.692;2022-10-24T16:41:57;99764.13;;;17.17
70819;BMP280;58439;51.046;13.692;2022-10-24T16:44:42;99762.88;;;17.03
70819;BMP280;58439;51.046;13.692;2022-10-24T16:47:13;99774.19;;;16.98
70819;BMP280;58439;51.046;13.692;2022-10-24T16:49:41;99784.06;;;16.86
70819;BMP280;58439;51.046;13.692;2022-10-24T17:41:45;99764.59;;;16.37
70819;BMP280;58439;51.046;13.692;2022-10-24T17:44:16;99767.69;;;16.34
70819;BMP280;58439;51.046;13.692;2022-10-24T17:46:44;99770.31;;;16.34
70819;BMP280;58439;51.046;13.692;2022-10-24T17:49:12;99773.53;;;16.36
70819;BMP280;58439;51.046;13.692;2022-10-24T17:51:48;99770.19;;;16.40
70819;BMP280;58439;51.046;13.692;2022-10-24T17:54:15;99770.97;;;16.41
70819;BMP280;58439;51.046;13.692;2022-10-24T17:56:43;99774.41;;;16.41
70819;BMP280;58439;51.046;13.692;2022-10-24T17:59:10;99768.81;;;16.38
70819;BMP280;58439;51.046;13.692;2022-10-24T18:01:37;99771.34;;;16.33
70819;BMP280;58439;51.046;13.692;2022-10-24T18:04:06;99778.97;;;16.29
70819;BMP280;58439;51.046;13.692;2022-10-24T18:06:51;99780.53;;;16.13
70819;BMP280;58439;51.046;13.692;2022-10-24T18:09:19;99795.97;;;16.05
70819;BMP280;58439;51.046;13.692;2022-10-24T18:11:47;99797.94;;;15.98
70819;BMP280;58439;51.046;13.692;2022-10-24T18:14:14;99798.47;;;15.83
70819;BMP280;58439;51.046;13.692;2022-10-24T18:16:41;99802.03;;;15.77
70819;BMP280;58439;51.046;13.692;2022-10-24T18:19:12;99803.16;;;15.81
70819;BMP280;58439;51.046;13.692;2022-10-24T18:21:45;99802.28;;;15.63
70819;BMP280;58439;51.046;13.692;2022-10-24T18:24:14;99808.66;;;15.39
70819;BMP280;58439;51.046;13.692;2022-10-24T18:26:42;99806.69;;;15.34
70819;BMP280;58439;51.046;13.692;2022-10-24T18:29:09;99811.41;;;15.21
70819;BMP280;58439;51.046;13.692;2022-10-24T18:31:37;99808.09;;;15.14
70819;BMP280;58439;51.046;13.692;2022-10-24T18:34:12;99797.78;;;15.12
70819;BMP280;58439;51.046;13.692;2022-10-24T18:36:39;99812.53;;;15.36
70819;BMP280;58439;51.046;13.692;2022-10-24T18:39:07;99805.31;;;15.44
70819;BMP280;58439;51.046;13.692;2022-10-24T18:41:53;99805.63;;;15.59
70819;BMP280;58439;51.046;13.692;2022-10-24T18:44:31;99816.75;;;15.61
70819;BMP280;58439;51.046;13.692;2022-10-24T18:47:08;99815.81;;;15.67
70819;BMP280;58439;51.046;13.692;2022-10-24T18:49:43;99819.13;;;15.74
70819;BMP280;58439;51.046;13.692;2022-10-24T18:52:38;99816.03;;;15.77
70819;BMP280;58439;51.046;13.692;2022-10-24T18:55:15;99818.97;;;15.81
70819;BMP280;58439;51.046;13.692;2022-10-24T18:57:48;99812.78;;;15.87
70819;BMP280;58439;51.046;13.692;2022-10-24T19:00:21;99809.66;;;15.90
70819;BMP280;58439;51.046;13.692;2022-10-24T19:03:30;99804.75;;;15.93
70819;BMP280;58439;51.046;13.692;2022-10-24T19:06:20;99805.84;;;15.98
70819;BMP280;58439;51.046;13.692;2022-10-24T19:08:52;99800.00;;;15.95
70819;BMP280;58439;51.046;13.692;2022-10-24T19:11:19;99810.22;;;15.92
70819;BMP280;58439;51.046;13.692;2022-10-24T19:13:50;99803.34;;;15.91
70819;BMP280;58439;51.046;13.692;2022-10-24T19:16:26;99805.09;;;15.85
70819;BMP280;58439;51.046;13.692;2022-10-24T19:19:31;99804.78;;;15.82
70819;BMP280;58439;51.046;13.692;2022-10-24T19:22:02;99807.41;;;15.82
70819;BMP280;58439;51.046;13.692;2022-10-24T19:24:30;99808.41;;;15.81
70819;BMP280;58439;51.046;13.692;2022-10-24T19:27:57;99815.31;;;15.82
70819;BMP280;58439;51.046;13.692;2022-10-24T19:30:39;99808.31;;;15.76
70819;BMP280;58439;51.046;13.692;2022-10-24T19:33:15;99806.72;;;15.75
70819;BMP280;58439;51.046;13.692;2022-10-24T19:35:55;99814.97;;;15.78
70819;BMP280;58439;51.046;13.692;2022-10-24T19:38:26;99822.44;;;15.81
70819;BMP280;58439;51.046;13.692;2022-10-24T19:40:54;99825.16;;;15.86
70819;BMP280;58439;51.046;13.692;2022-10-24T19:43:24;99814.38;;;15.88
70819;BMP280;58439;51.046;13.692;2022-10-24T19:46:06;99813.19;;;15.95
70819;BMP280;58439;51.046;13.692;2022-10-24T19:48:46;99821.44;;;15.99
70819;BMP280;58439;51.046;13.692;2022-10-24T19:51:21;99823.53;;;15.97
70819;BMP280;58439;51.046;13.692;2022-10-24T19:53:52;99828.22;;;15.95